createdAt,value
2019-03-28T00:00:27.116Z,9.32
2019-03-28T00:01:27.011Z,9.34
2019-03-28T00:02:26.906Z,9.28
2019-03-28T00:03:27.094Z,9.34
2019-03-28T00:04:26.702Z,9.34
2019-03-28T00:05:26.595Z,9.32
2019-03-28T00:06:26.491Z,9.31
2019-03-28T00:07:26.386Z,9.29
2019-03-28T00:08:26.284Z,9.32
2019-03-28T00:09:26.178Z,9.37
2019-03-28T00:10:26.075Z,9.36
2019-03-28T00:11:25.970Z,9.29
2019-03-28T00:12:25.872Z,9.36
2019-03-28T00:13:25.762Z,9.31
2019-03-28T00:14:25.689Z,9.29
2019-03-28T00:15:25.628Z,9.32
2019-03-28T00:16:25.457Z,9.31
2019-03-28T00:17:25.349Z,9.40
2019-03-28T00:18:25.244Z,9.39
2019-03-28T00:19:25.140Z,9.31
2019-03-28T00:20:25.036Z,9.29
2019-03-28T00:21:24.930Z,9.31
2019-03-28T00:22:24.828Z,9.31
2019-03-28T00:23:24.726Z,9.34
2019-03-28T00:24:24.622Z,9.34
2019-03-28T00:25:24.518Z,9.34
2019-03-28T00:26:29.937Z,9.36
2019-03-28T00:27:24.310Z,9.32
2019-03-28T00:28:24.205Z,9.28
2019-03-28T00:29:24.101Z,9.39
2019-03-28T00:30:23.999Z,9.37
2019-03-28T00:31:23.896Z,9.37
2019-03-28T00:32:23.791Z,9.41
2019-03-28T00:33:23.687Z,9.36
2019-03-28T00:34:23.604Z,9.29
2019-03-28T00:35:23.482Z,9.36
2019-03-28T00:36:23.375Z,9.34
2019-03-28T00:37:23.272Z,9.36
2019-03-28T00:38:23.170Z,9.34
2019-03-28T00:39:23.063Z,9.31
2019-03-28T00:40:22.967Z,9.28
2019-03-28T00:41:22.855Z,9.36
2019-03-28T00:42:22.753Z,9.37
2019-03-28T00:43:22.650Z,9.39
2019-03-28T00:44:22.544Z,9.46
2019-03-28T00:45:22.441Z,9.39
2019-03-28T00:46:22.339Z,9.32
2019-03-28T00:47:22.234Z,9.39
2019-03-28T00:48:22.135Z,9.34
2019-03-28T00:49:22.027Z,9.34
2019-03-28T00:50:21.926Z,9.32
2019-03-28T00:51:21.820Z,9.46
2019-03-28T00:52:21.716Z,9.31
2019-03-28T00:53:21.641Z,9.32
2019-03-28T00:54:21.587Z,9.32
2019-03-28T00:55:21.403Z,9.32
2019-03-28T00:56:21.302Z,9.28
2019-03-28T00:57:21.196Z,9.36
2019-03-28T00:58:21.093Z,9.41
2019-03-28T00:59:20.993Z,9.36
2019-03-28T01:00:20.889Z,9.29
2019-03-28T01:01:20.786Z,9.39
2019-03-28T01:02:21.176Z,9.43
2019-03-28T01:03:20.578Z,9.41
2019-03-28T01:04:20.473Z,9.34
2019-03-28T01:05:20.367Z,9.29
2019-03-28T01:06:20.266Z,9.32
2019-03-28T01:07:20.160Z,9.41
2019-03-28T01:08:20.060Z,9.36
2019-03-28T01:09:19.956Z,9.37
2019-03-28T01:10:19.849Z,9.31
2019-03-28T01:11:19.747Z,9.39
2019-03-28T01:12:19.642Z,9.43
2019-03-28T01:13:19.566Z,9.29
2019-03-28T01:14:19.438Z,9.37
2019-03-28T01:15:19.336Z,9.40
2019-03-28T01:16:19.236Z,9.37
2019-03-28T01:17:19.125Z,9.34
2019-03-28T01:18:19.019Z,9.34
2019-03-28T01:19:18.917Z,9.36
2019-03-28T01:20:18.814Z,9.32
2019-03-28T01:21:18.714Z,9.44
2019-03-28T01:22:18.605Z,9.34
2019-03-28T01:23:18.501Z,9.40
2019-03-28T01:24:18.398Z,9.43
2019-03-28T01:25:18.293Z,9.43
2019-03-28T01:26:18.371Z,9.34
2019-03-28T01:27:18.090Z,9.39
2019-03-28T01:28:17.983Z,9.32
2019-03-28T01:29:17.878Z,9.37
2019-03-28T01:30:17.776Z,9.34
2019-03-28T01:31:17.672Z,9.34
2019-03-28T01:32:17.602Z,9.37
2019-03-28T01:33:17.750Z,9.41
2019-03-28T01:34:17.362Z,9.40
2019-03-28T01:35:17.257Z,9.37
2019-03-28T01:36:17.155Z,9.29
2019-03-28T01:37:17.051Z,9.32
2019-03-28T01:38:16.949Z,9.37
2019-03-28T01:39:17.139Z,9.40
2019-03-28T01:40:16.743Z,9.36
2019-03-28T01:41:16.633Z,9.32
2019-03-28T01:42:16.530Z,9.31
2019-03-28T01:43:16.430Z,9.28
2019-03-28T01:44:16.430Z,9.34
2019-03-28T01:45:16.219Z,9.29
2019-03-28T01:46:16.117Z,9.32
2019-03-28T01:47:16.012Z,9.28
2019-03-28T01:48:15.908Z,9.26
2019-03-28T01:49:15.804Z,9.29
2019-03-28T01:50:15.701Z,9.31
2019-03-28T01:51:15.594Z,9.28
2019-03-28T01:52:15.515Z,9.31
2019-03-28T01:53:15.388Z,9.29
2019-03-28T01:54:15.286Z,9.36
2019-03-28T01:55:15.182Z,9.28
2019-03-28T01:56:15.077Z,9.37
2019-03-28T01:57:14.975Z,9.32
2019-03-28T01:58:14.871Z,9.29
2019-03-28T01:59:14.767Z,9.46
2019-03-28T02:00:14.673Z,9.44
2019-03-28T02:01:14.559Z,9.36
2019-03-28T02:02:14.457Z,9.34
2019-03-28T02:03:14.353Z,9.36
2019-03-28T02:04:14.249Z,9.34
2019-03-28T02:05:14.146Z,9.41
2019-03-28T02:06:14.041Z,9.25
2019-03-28T02:07:13.939Z,9.36
2019-03-28T02:08:13.835Z,9.36
2019-03-28T02:09:13.731Z,9.37
2019-03-28T02:10:13.625Z,9.32
2019-03-28T02:11:13.563Z,9.37
2019-03-28T02:12:13.490Z,9.37
2019-03-28T02:13:13.315Z,9.34
2019-03-28T02:14:13.211Z,9.31
2019-03-28T02:15:13.108Z,9.29
2019-03-28T02:16:13.008Z,9.29
2019-03-28T02:17:12.899Z,9.28
2019-03-28T02:18:12.795Z,9.29
2019-03-28T02:19:12.992Z,9.29
2019-03-28T02:20:12.589Z,9.34
2019-03-28T02:21:12.486Z,9.34
2019-03-28T02:22:12.379Z,9.34
2019-03-28T02:23:12.278Z,9.34
2019-03-28T02:24:12.174Z,9.34
2019-03-28T02:25:12.068Z,9.32
2019-03-28T02:26:11.966Z,9.34
2019-03-28T02:27:23.317Z,9.40
2019-03-28T02:28:11.759Z,9.31
2019-03-28T02:29:11.653Z,9.29
2019-03-28T02:30:11.620Z,9.31
2019-03-28T02:31:11.527Z,9.32
2019-03-28T02:32:11.353Z,9.39
2019-03-28T02:33:11.239Z,9.34
2019-03-28T02:34:11.136Z,9.37
2019-03-28T02:35:11.030Z,9.31
2019-03-28T02:36:10.931Z,9.34
2019-03-28T02:37:10.824Z,9.31
2019-03-28T02:38:10.724Z,9.34
2019-03-28T02:39:10.616Z,9.37
2019-03-28T02:40:10.517Z,9.32
2019-03-28T02:41:10.411Z,9.26
2019-03-28T02:42:10.306Z,9.34
2019-03-28T02:43:10.203Z,9.32
2019-03-28T02:44:10.261Z,9.29
2019-03-28T02:45:10.003Z,9.34
2019-03-28T02:46:09.888Z,9.29
2019-03-28T02:47:09.812Z,9.32
2019-03-28T02:48:09.688Z,9.34
2019-03-28T02:49:09.581Z,9.32
2019-03-28T02:50:09.505Z,9.34
2019-03-28T02:51:09.449Z,9.32
2019-03-28T02:52:09.266Z,9.28
2019-03-28T02:53:09.162Z,9.31
2019-03-28T02:54:09.060Z,9.26
2019-03-28T02:55:08.958Z,9.37
2019-03-28T02:56:08.872Z,9.28
2019-03-28T02:57:08.749Z,9.32
2019-03-28T02:58:08.647Z,9.29
2019-03-28T02:59:08.540Z,9.32
2019-03-28T03:00:08.447Z,9.28
2019-03-28T03:01:08.331Z,9.29
2019-03-28T03:02:08.231Z,9.26
2019-03-28T03:03:08.126Z,9.32
2019-03-28T03:04:08.023Z,9.32
2019-03-28T03:05:07.920Z,9.29
2019-03-28T03:06:07.811Z,9.34
2019-03-28T03:07:07.714Z,9.28
2019-03-28T03:08:07.870Z,9.29
2019-03-28T03:09:07.502Z,9.29
2019-03-28T03:10:07.428Z,9.32
2019-03-28T03:11:07.299Z,9.29
2019-03-28T03:12:07.190Z,9.23
2019-03-28T03:13:07.087Z,9.28
2019-03-28T03:14:06.987Z,9.25
2019-03-28T03:15:06.888Z,9.29
2019-03-28T03:16:06.775Z,9.23
2019-03-28T03:17:06.671Z,9.28
2019-03-28T03:18:07.739Z,9.25
2019-03-28T03:19:06.465Z,9.23
2019-03-28T03:20:06.363Z,9.26
2019-03-28T03:21:06.258Z,9.23
2019-03-28T03:22:06.163Z,9.26
2019-03-28T03:23:06.050Z,9.22
2019-03-28T03:24:05.949Z,9.31
2019-03-28T03:25:05.840Z,9.26
2019-03-28T03:26:05.736Z,9.22
2019-03-28T03:27:05.634Z,9.22
2019-03-28T03:28:05.531Z,9.28
2019-03-28T03:29:05.459Z,9.29
2019-03-28T03:30:05.395Z,9.23
2019-03-28T03:31:05.221Z,9.22
2019-03-28T03:32:05.120Z,9.23
2019-03-28T03:33:05.014Z,9.26
2019-03-28T03:34:05.269Z,9.18
2019-03-28T03:35:04.818Z,9.31
2019-03-28T03:36:04.701Z,9.23
2019-03-28T03:37:04.596Z,9.21
2019-03-28T03:38:04.492Z,9.23
2019-03-28T03:39:04.392Z,9.23
2019-03-28T03:40:04.285Z,9.28
2019-03-28T03:41:04.182Z,9.19
2019-03-28T03:42:04.078Z,9.19
2019-03-28T03:43:03.975Z,9.16
2019-03-28T03:44:03.870Z,9.25
2019-03-28T03:45:03.770Z,9.14
2019-03-28T03:46:03.663Z,9.23
2019-03-28T03:47:03.560Z,9.25
2019-03-28T03:48:03.458Z,9.23
2019-03-28T03:49:03.407Z,9.19
2019-03-28T03:50:03.256Z,9.23
2019-03-28T03:51:03.144Z,9.23
2019-03-28T03:52:03.041Z,9.19
2019-03-28T03:53:02.956Z,9.16
2019-03-28T03:54:02.836Z,9.18
2019-03-28T03:55:02.737Z,9.19
2019-03-28T03:56:02.624Z,9.23
2019-03-28T03:57:02.522Z,9.18
2019-03-28T03:58:15.208Z,9.19
2019-03-28T03:59:02.315Z,9.26
2019-03-28T04:00:02.232Z,9.19
2019-03-28T04:01:02.111Z,9.25
2019-03-28T04:02:02.001Z,9.19
2019-03-28T04:03:02.979Z,9.22
2019-03-28T04:04:01.796Z,9.29
2019-03-28T04:05:01.689Z,9.18
2019-03-28T04:06:01.590Z,9.23
2019-03-28T04:07:01.486Z,9.28
2019-03-28T04:08:01.414Z,9.25
2019-03-28T04:09:01.356Z,9.19
2019-03-28T04:10:01.181Z,9.13
2019-03-28T04:11:01.078Z,9.23
2019-03-28T04:12:00.963Z,9.18
2019-03-28T04:13:00.861Z,9.25
2019-03-28T04:14:00.761Z,9.26
2019-03-28T04:15:00.653Z,9.25
2019-03-28T04:16:00.556Z,9.25
2019-03-28T04:17:00.447Z,9.22
2019-03-28T04:18:00.345Z,9.23
2019-03-28T04:19:00.239Z,9.21
2019-03-28T04:20:00.475Z,9.21
2019-03-28T04:21:00.030Z,9.26
2019-03-28T04:21:59.927Z,9.22
2019-03-28T04:22:59.825Z,9.13
2019-03-28T04:23:59.724Z,9.19
2019-03-28T04:24:59.614Z,9.22
2019-03-28T04:25:59.511Z,9.18
2019-03-28T04:26:59.407Z,9.23
2019-03-28T04:27:59.341Z,9.14
2019-03-28T04:28:59.201Z,9.16
2019-03-28T04:29:59.108Z,9.19
2019-03-28T04:30:58.993Z,9.21
2019-03-28T04:31:58.890Z,9.23
2019-03-28T04:32:58.894Z,9.19
2019-03-28T04:33:58.685Z,9.19
2019-03-28T04:34:59.548Z,9.25
2019-03-28T04:35:58.475Z,9.19
2019-03-28T04:36:58.370Z,9.22
2019-03-28T04:37:58.628Z,9.23
2019-03-28T04:38:58.162Z,9.16
2019-03-28T04:39:58.060Z,9.18
2019-03-28T04:40:57.953Z,9.22
2019-03-28T04:41:57.850Z,9.22
2019-03-28T04:42:57.750Z,9.23
2019-03-28T04:43:57.651Z,9.19
2019-03-28T04:44:57.539Z,9.13
2019-03-28T04:45:57.436Z,9.16
2019-03-28T04:46:57.363Z,9.25
2019-03-28T04:47:57.290Z,9.31
2019-03-28T04:48:57.121Z,9.18
2019-03-28T04:49:57.020Z,9.22
2019-03-28T04:50:56.934Z,9.19
2019-03-28T04:51:56.828Z,9.28
2019-03-28T04:52:56.724Z,9.19
2019-03-28T04:53:56.626Z,9.16
2019-03-28T04:54:56.497Z,9.13
2019-03-28T04:55:56.396Z,9.25
2019-03-28T04:56:56.314Z,9.23
2019-03-28T04:57:56.206Z,9.23
2019-03-28T04:58:56.101Z,9.29
2019-03-28T04:59:55.984Z,9.28
2019-03-28T05:00:55.878Z,9.22
2019-03-28T05:02:02.884Z,9.19
2019-03-28T05:02:55.669Z,9.23
2019-03-28T05:03:55.569Z,9.18
2019-03-28T05:04:55.461Z,9.28
2019-03-28T05:05:55.367Z,9.18
2019-03-28T05:06:55.288Z,9.23
2019-03-28T05:07:55.149Z,9.28
2019-03-28T05:08:55.046Z,9.14
2019-03-28T05:09:54.945Z,9.22
2019-03-28T05:10:54.838Z,9.16
2019-03-28T05:11:54.738Z,9.22
2019-03-28T05:12:54.631Z,9.18
2019-03-28T05:13:54.530Z,9.22
2019-03-28T05:14:54.423Z,9.31
2019-03-28T05:15:54.320Z,9.18
2019-03-28T05:16:54.217Z,9.25
2019-03-28T05:17:54.112Z,9.19
2019-03-28T05:18:54.008Z,9.23
2019-03-28T05:19:53.978Z,9.25
2019-03-28T05:20:53.800Z,9.19
2019-03-28T05:21:53.700Z,9.23
2019-03-28T05:22:53.596Z,9.19
2019-03-28T05:23:53.490Z,9.18
2019-03-28T05:24:53.386Z,9.23
2019-03-28T05:25:53.307Z,9.31
2019-03-28T05:26:53.253Z,9.28
2019-03-28T05:27:53.076Z,9.25
2019-03-28T05:28:57.834Z,9.31
2019-03-28T05:29:52.865Z,9.26
2019-03-28T05:30:52.764Z,9.26
2019-03-28T05:31:52.662Z,9.25
2019-03-28T05:32:52.555Z,9.25
2019-03-28T05:33:52.450Z,9.22
2019-03-28T05:34:52.349Z,9.19
2019-03-28T05:35:52.346Z,9.21
2019-03-28T05:36:52.294Z,9.23
2019-03-28T05:37:52.036Z,9.18
2019-03-28T05:38:51.938Z,9.18
2019-03-28T05:39:51.830Z,9.21
2019-03-28T05:40:51.732Z,9.26
2019-03-28T05:41:51.621Z,9.25
2019-03-28T05:42:51.517Z,9.31
2019-03-28T05:43:51.413Z,9.28
2019-03-28T05:44:51.311Z,9.23
2019-03-28T05:45:51.291Z,9.23
2019-03-28T05:46:51.104Z,9.23
2019-03-28T05:47:50.999Z,9.29
2019-03-28T05:48:50.897Z,9.26
2019-03-28T05:49:50.791Z,9.25
2019-03-28T05:50:50.690Z,9.21
2019-03-28T05:51:50.585Z,9.28
2019-03-28T05:52:50.483Z,9.23
2019-03-28T05:53:50.377Z,9.26
2019-03-28T05:54:50.274Z,9.25
2019-03-28T05:55:50.172Z,9.29
2019-03-28T05:56:50.066Z,9.37
2019-03-28T05:57:49.969Z,9.29
2019-03-28T05:58:49.859Z,9.31
2019-03-28T05:59:49.760Z,9.40
2019-03-28T06:00:51.295Z,9.31
2019-03-28T06:01:49.548Z,9.29
2019-03-28T06:02:50.016Z,9.34
2019-03-28T06:03:49.426Z,9.40
2019-03-28T06:04:49.266Z,9.29
2019-03-28T06:05:49.199Z,9.34
2019-03-28T06:06:49.033Z,9.31
2019-03-28T06:07:48.928Z,9.32
2019-03-28T06:08:48.823Z,9.32
2019-03-28T06:09:48.721Z,9.39
2019-03-28T06:10:48.614Z,9.36
2019-03-28T06:11:48.513Z,9.34
2019-03-28T06:12:48.408Z,9.40
2019-03-28T06:13:48.304Z,9.40
2019-03-28T06:14:48.204Z,9.41
2019-03-28T06:15:48.100Z,9.34
2019-03-28T06:16:47.994Z,9.34
2019-03-28T06:17:47.892Z,9.36
2019-03-28T06:18:47.785Z,9.31
2019-03-28T06:19:47.681Z,9.41
2019-03-28T06:20:47.580Z,9.39
2019-03-28T06:21:47.539Z,9.41
2019-03-28T06:22:47.374Z,9.37
2019-03-28T06:23:47.270Z,9.39
2019-03-28T06:24:47.207Z,9.39
2019-03-28T06:25:47.062Z,9.41
2019-03-28T06:26:49.804Z,9.46
2019-03-28T06:27:46.857Z,9.37
2019-03-28T06:28:46.752Z,9.44
2019-03-28T06:29:46.651Z,9.46
2019-03-28T06:30:46.546Z,9.44
2019-03-28T06:31:55.160Z,9.46
2019-03-28T06:32:46.340Z,9.44
2019-03-28T06:33:46.236Z,9.48
2019-03-28T06:34:46.137Z,9.41
2019-03-28T06:35:46.031Z,9.47
2019-03-28T06:36:45.925Z,9.47
2019-03-28T06:37:45.906Z,9.51
2019-03-28T06:38:45.719Z,9.48
2019-03-28T06:39:45.615Z,9.50
2019-03-28T06:40:45.512Z,9.50
2019-03-28T06:41:45.410Z,9.50
2019-03-28T06:42:45.305Z,9.50
2019-03-28T06:43:45.221Z,9.50
2019-03-28T06:44:45.151Z,9.48
2019-03-28T06:45:44.996Z,9.51
2019-03-28T06:46:44.891Z,9.47
2019-03-28T06:47:44.788Z,9.62
2019-03-28T06:48:44.685Z,9.59
2019-03-28T06:49:44.581Z,9.58
2019-03-28T06:50:44.480Z,9.61
2019-03-28T06:51:44.374Z,9.58
2019-03-28T06:52:44.271Z,9.64
2019-03-28T06:53:44.169Z,9.55
2019-03-28T06:54:44.065Z,9.58
2019-03-28T06:55:43.964Z,9.59
2019-03-28T06:56:43.857Z,9.61
2019-03-28T06:57:43.754Z,9.62
2019-03-28T06:58:43.651Z,9.62
2019-03-28T06:59:43.551Z,9.55
2019-03-28T07:00:43.447Z,9.72
2019-03-28T07:01:43.342Z,9.64
2019-03-28T07:02:43.513Z,9.59
2019-03-28T07:03:43.203Z,9.65
2019-03-28T07:04:43.039Z,9.62
2019-03-28T07:05:42.929Z,9.59
2019-03-28T07:06:42.829Z,9.64
2019-03-28T07:07:42.721Z,9.61
2019-03-28T07:08:42.620Z,9.62
2019-03-28T07:09:42.518Z,9.68
2019-03-28T07:10:42.414Z,9.69
2019-03-28T07:11:42.311Z,9.65
2019-03-28T07:12:42.208Z,9.62
2019-03-28T07:13:42.104Z,9.62
2019-03-28T07:14:42.001Z,9.61
2019-03-28T07:15:41.899Z,9.66
2019-03-28T07:16:41.878Z,9.73
2019-03-28T07:17:41.694Z,9.80
2019-03-28T07:18:41.591Z,9.83
2019-03-28T07:19:41.486Z,9.80
2019-03-28T07:20:41.380Z,9.69
2019-03-28T07:21:41.280Z,9.72
2019-03-28T07:22:41.176Z,9.66
2019-03-28T07:23:41.106Z,9.73
2019-03-28T07:24:40.970Z,9.62
2019-03-28T07:25:40.869Z,9.68
2019-03-28T07:26:40.764Z,9.66
2019-03-28T07:27:40.664Z,9.68
2019-03-28T07:28:40.559Z,9.68
2019-03-28T07:29:50.185Z,9.69
2019-03-28T07:30:40.353Z,9.72
2019-03-28T07:31:40.600Z,9.62
2019-03-28T07:32:43.236Z,9.72
2019-03-28T07:33:40.041Z,9.68
2019-03-28T07:34:39.939Z,9.83
2019-03-28T07:35:39.838Z,9.77
2019-03-28T07:36:39.732Z,9.82
2019-03-28T07:37:39.629Z,9.77
2019-03-28T07:38:39.529Z,9.80
2019-03-28T07:39:39.429Z,9.98
2019-03-28T07:40:39.321Z,9.94
2019-03-28T07:41:39.218Z,9.84
2019-03-28T07:42:39.141Z,9.94
2019-03-28T07:43:39.081Z,9.95
2019-03-28T07:44:38.912Z,9.92
2019-03-28T07:45:38.809Z,9.91
2019-03-28T07:46:38.704Z,9.84
2019-03-28T07:47:38.602Z,9.92
2019-03-28T07:48:38.498Z,10.01
2019-03-28T07:49:38.397Z,9.97
2019-03-28T07:50:38.293Z,9.92
2019-03-28T07:51:38.191Z,9.99
2019-03-28T07:52:38.090Z,9.94
2019-03-28T07:53:37.985Z,9.94
2019-03-28T07:54:37.882Z,10.02
2019-03-28T07:55:37.779Z,10.02
2019-03-28T07:56:37.675Z,9.99
2019-03-28T07:57:37.574Z,9.92
2019-03-28T07:58:37.471Z,10.01
2019-03-28T07:59:37.374Z,10.09
2019-03-28T08:00:37.266Z,10.05
2019-03-28T08:01:37.164Z,10.12
2019-03-28T08:02:37.115Z,10.09
2019-03-28T08:03:39.871Z,10.02
2019-03-28T08:04:36.854Z,10.04
2019-03-28T08:05:36.754Z,9.95
2019-03-28T08:06:48.839Z,9.97
2019-03-28T08:07:44.778Z,10.02
2019-03-28T08:08:38.908Z,10.09
2019-03-28T08:09:37.078Z,10.15
2019-03-28T08:10:36.239Z,10.12
2019-03-28T08:11:36.154Z,10.26
2019-03-28T08:12:36.047Z,10.25
2019-03-28T08:13:35.933Z,10.33
2019-03-28T08:14:35.830Z,10.20
2019-03-28T08:15:35.729Z,10.37
2019-03-28T08:16:35.624Z,10.26
2019-03-28T08:17:35.527Z,10.34
2019-03-28T08:18:35.422Z,10.33
2019-03-28T08:19:35.319Z,10.25
2019-03-28T08:20:35.216Z,10.23
2019-03-28T08:21:35.116Z,10.23
2019-03-28T08:22:35.045Z,10.31
2019-03-28T08:23:35.414Z,10.20
2019-03-28T08:24:34.811Z,10.22
2019-03-28T08:25:34.705Z,10.28
2019-03-28T08:26:34.605Z,10.35
2019-03-28T08:27:34.500Z,10.35
2019-03-28T08:28:34.400Z,10.35
2019-03-28T08:29:34.298Z,10.28
2019-03-28T08:30:34.193Z,10.31
2019-03-28T08:31:34.091Z,10.25
2019-03-28T08:32:34.654Z,10.38
2019-03-28T08:33:33.886Z,10.42
2019-03-28T08:34:33.784Z,10.51
2019-03-28T08:35:33.686Z,10.48
2019-03-28T08:36:33.579Z,10.53
2019-03-28T08:37:33.479Z,10.57
2019-03-28T08:38:33.378Z,10.57
2019-03-28T08:39:33.276Z,10.61
2019-03-28T08:40:33.171Z,10.54
2019-03-28T08:41:33.071Z,10.46
2019-03-28T08:42:33.011Z,10.51
2019-03-28T08:43:35.838Z,10.42
2019-03-28T08:44:32.762Z,10.49
2019-03-28T08:45:32.660Z,10.61
2019-03-28T08:46:32.559Z,10.48
2019-03-28T08:47:32.457Z,10.46
2019-03-28T08:48:32.354Z,10.57
2019-03-28T08:49:32.253Z,10.46
2019-03-28T08:50:32.151Z,10.41
2019-03-28T08:51:32.049Z,10.57
2019-03-28T08:52:31.948Z,10.59
2019-03-28T08:53:31.845Z,10.46
2019-03-28T08:54:31.744Z,10.51
2019-03-28T08:55:31.639Z,10.64
2019-03-28T08:56:31.540Z,10.57
2019-03-28T08:57:31.437Z,10.46
2019-03-28T08:58:31.337Z,10.44
2019-03-28T08:59:31.232Z,10.57
2019-03-28T09:00:35.134Z,10.54
2019-03-28T09:01:31.059Z,10.59
2019-03-28T09:02:30.995Z,10.56
2019-03-28T09:03:30.826Z,10.46
2019-03-28T09:04:30.723Z,10.49
2019-03-28T09:05:30.623Z,10.42
2019-03-28T09:06:30.520Z,10.59
2019-03-28T09:07:30.431Z,10.56
2019-03-28T09:08:30.314Z,10.57
2019-03-28T09:09:30.215Z,10.46
2019-03-28T09:10:30.116Z,10.54
2019-03-28T09:11:30.010Z,10.57
2019-03-28T09:12:29.908Z,10.56
2019-03-28T09:13:29.818Z,10.60
2019-03-28T09:14:31.905Z,10.57
2019-03-28T09:15:42.681Z,10.59
2019-03-28T09:16:29.500Z,10.61
2019-03-28T09:17:29.399Z,10.64
2019-03-28T09:18:29.297Z,10.74
2019-03-28T09:19:29.200Z,10.74
2019-03-28T09:20:29.092Z,10.75
2019-03-28T09:21:29.029Z,10.75
2019-03-28T09:22:28.955Z,10.81
2019-03-28T09:23:28.791Z,10.76
2019-03-28T09:24:28.688Z,10.75
2019-03-28T09:25:28.584Z,10.84
2019-03-28T09:26:28.487Z,10.90
2019-03-28T09:27:28.382Z,10.97
2019-03-28T09:28:28.278Z,10.79
2019-03-28T09:29:28.179Z,10.92
2019-03-28T09:30:28.075Z,10.72
2019-03-28T09:31:27.974Z,10.74
2019-03-28T09:32:27.872Z,10.69
2019-03-28T09:33:27.770Z,10.71
2019-03-28T09:34:27.670Z,10.74
2019-03-28T09:35:27.576Z,10.79
2019-03-28T09:36:27.469Z,10.75
2019-03-28T09:37:27.365Z,10.74
2019-03-28T09:38:27.264Z,10.75
2019-03-28T09:39:27.163Z,10.81
2019-03-28T09:40:27.060Z,10.72
2019-03-28T09:41:27.009Z,10.75
2019-03-28T09:42:26.935Z,10.75
2019-03-28T09:43:26.756Z,10.74
2019-03-28T09:44:26.655Z,10.75
2019-03-28T09:45:26.556Z,10.67
2019-03-28T09:46:26.450Z,10.61
2019-03-28T09:47:26.349Z,10.64
2019-03-28T09:48:26.247Z,10.68
2019-03-28T09:49:26.145Z,10.64
2019-03-28T09:50:26.044Z,10.60
2019-03-28T09:51:25.946Z,10.59
2019-03-28T09:52:25.840Z,10.68
2019-03-28T09:53:25.738Z,10.57
2019-03-28T09:54:25.650Z,10.46
2019-03-28T09:55:25.536Z,10.56
2019-03-28T09:56:25.520Z,10.61
2019-03-28T09:57:25.331Z,10.72
2019-03-28T09:58:25.228Z,10.72
2019-03-28T09:59:25.129Z,10.82
2019-03-28T10:00:25.027Z,10.79
2019-03-28T10:01:24.964Z,10.74
2019-03-28T10:02:24.915Z,10.75
2019-03-28T10:03:24.725Z,10.74
2019-03-28T10:04:24.623Z,10.87
2019-03-28T10:05:24.524Z,10.90
2019-03-28T10:06:24.415Z,11.00
2019-03-28T10:07:24.315Z,11.00
2019-03-28T10:08:24.214Z,11.11
2019-03-28T10:09:24.111Z,11.08
2019-03-28T10:10:24.010Z,11.04
2019-03-28T10:11:23.924Z,10.99
2019-03-28T10:12:23.810Z,10.90
2019-03-28T10:13:23.706Z,10.94
2019-03-28T10:14:23.603Z,10.92
2019-03-28T10:15:23.500Z,10.92
2019-03-28T10:16:23.397Z,10.87
2019-03-28T10:17:23.299Z,10.99
2019-03-28T10:18:23.198Z,10.97
2019-03-28T10:19:23.096Z,10.97
2019-03-28T10:20:22.994Z,10.92
2019-03-28T10:21:22.965Z,10.93
2019-03-28T10:22:22.800Z,10.97
2019-03-28T10:23:22.689Z,10.90
2019-03-28T10:24:22.590Z,10.84
2019-03-28T10:25:22.486Z,10.74
2019-03-28T10:26:22.385Z,10.92
2019-03-28T10:27:22.284Z,10.94
2019-03-28T10:28:22.182Z,10.90
2019-03-28T10:29:22.081Z,10.93
2019-03-28T10:30:21.980Z,10.94
2019-03-28T10:31:21.876Z,10.84
2019-03-28T10:32:21.778Z,10.96
2019-03-28T10:33:21.675Z,10.93
2019-03-28T10:34:21.573Z,11.08
2019-03-28T10:35:21.474Z,11.17
2019-03-28T10:36:21.369Z,11.10
2019-03-28T10:37:21.269Z,11.10
2019-03-28T10:38:21.167Z,11.07
2019-03-28T10:39:21.068Z,11.10
2019-03-28T10:40:20.964Z,11.05
2019-03-28T10:41:20.928Z,11.05
2019-03-28T10:42:20.860Z,11.10
2019-03-28T10:43:20.662Z,11.10
2019-03-28T10:44:20.559Z,11.10
2019-03-28T10:45:20.460Z,11.08
2019-03-28T10:46:20.356Z,11.18
2019-03-28T10:47:20.259Z,11.04
2019-03-28T10:48:23.289Z,11.12
2019-03-28T10:49:20.055Z,11.08
2019-03-28T10:50:19.949Z,11.02
2019-03-28T10:51:19.849Z,11.10
2019-03-28T10:52:19.750Z,11.19
2019-03-28T10:53:19.647Z,11.17
2019-03-28T10:54:20.885Z,11.29
2019-03-28T10:55:19.449Z,11.32
2019-03-28T10:56:23.399Z,11.18
2019-03-28T10:57:29.597Z,11.25
2019-03-28T10:58:19.641Z,11.14
2019-03-28T10:59:23.489Z,11.07
2019-03-28T11:00:24.348Z,11.15
2019-03-28T11:01:32.699Z,11.17
2019-03-28T11:02:18.735Z,11.22
2019-03-28T11:03:18.637Z,11.27
2019-03-28T11:04:18.538Z,11.30
2019-03-28T11:05:18.431Z,11.32
2019-03-28T11:06:18.333Z,11.25
2019-03-28T11:07:18.231Z,11.27
2019-03-28T11:08:18.130Z,11.32
2019-03-28T11:09:18.028Z,11.30
2019-03-28T11:10:17.929Z,11.41
2019-03-28T11:11:17.858Z,11.40
2019-03-28T11:12:17.724Z,11.57
2019-03-28T11:13:17.624Z,11.66
2019-03-28T11:14:17.520Z,11.75
2019-03-28T11:15:17.427Z,11.80
2019-03-28T11:16:17.320Z,11.75
2019-03-28T11:17:17.220Z,11.78
2019-03-28T11:18:17.125Z,11.73
2019-03-28T11:19:17.562Z,11.72
2019-03-28T11:20:16.919Z,11.70
2019-03-28T11:21:16.877Z,11.90
2019-03-28T11:22:16.722Z,11.87
2019-03-28T11:23:16.614Z,12.12
2019-03-28T11:24:16.513Z,12.21
2019-03-28T11:25:16.415Z,12.46
2019-03-28T11:26:16.320Z,12.31
2019-03-28T11:27:16.215Z,12.09
2019-03-28T11:28:16.142Z,12.12
2019-03-28T11:29:16.012Z,12.02
2019-03-28T11:30:18.228Z,12.02
2019-03-28T11:31:15.812Z,11.95
2019-03-28T11:32:15.710Z,11.69
2019-03-28T11:33:15.611Z,11.70
2019-03-28T11:34:15.511Z,11.80
2019-03-28T11:35:15.411Z,11.90
2019-03-28T11:36:15.310Z,11.72
2019-03-28T11:37:24.936Z,11.77
2019-03-28T11:38:15.113Z,11.70
2019-03-28T11:39:15.010Z,11.70
2019-03-28T11:40:14.909Z,11.72
2019-03-28T11:41:14.855Z,11.55
2019-03-28T11:42:14.786Z,11.69
2019-03-28T11:43:14.612Z,11.69
2019-03-28T11:44:14.508Z,11.78
2019-03-28T11:45:14.408Z,11.68
2019-03-28T11:46:14.309Z,11.75
2019-03-28T11:47:14.209Z,11.68
2019-03-28T11:48:14.109Z,11.57
2019-03-28T11:49:14.007Z,11.68
2019-03-28T11:50:16.842Z,11.63
2019-03-28T11:51:13.808Z,11.66
2019-03-28T11:52:13.706Z,11.70
2019-03-28T11:53:13.605Z,11.60
2019-03-28T11:54:13.505Z,11.77
2019-03-28T11:55:13.405Z,11.77
2019-03-28T11:56:13.305Z,11.65
2019-03-28T11:57:15.691Z,11.66
2019-03-28T11:58:13.104Z,11.65
2019-03-28T11:59:13.004Z,11.52
2019-03-28T12:00:12.902Z,11.45
2019-03-28T12:01:12.830Z,11.51
2019-03-28T12:02:19.797Z,11.44
2019-03-28T12:03:12.600Z,11.48
2019-03-28T12:04:12.504Z,11.51
2019-03-28T12:05:12.400Z,11.50
2019-03-28T12:06:12.299Z,11.30
2019-03-28T12:07:12.201Z,11.33
2019-03-28T12:08:12.099Z,11.37
2019-03-28T12:09:12.309Z,11.23
2019-03-28T12:10:11.895Z,11.32
2019-03-28T12:11:11.812Z,11.27
2019-03-28T12:12:11.696Z,11.33
2019-03-28T12:13:11.592Z,11.32
2019-03-28T12:14:11.497Z,11.27
2019-03-28T12:15:11.390Z,11.26
2019-03-28T12:16:11.291Z,11.27
2019-03-28T12:17:11.189Z,11.26
2019-03-28T12:18:11.094Z,11.19
2019-03-28T12:19:10.988Z,11.25
2019-03-28T12:20:10.887Z,11.27
2019-03-28T12:21:10.838Z,11.22
2019-03-28T12:22:10.737Z,11.33
2019-03-28T12:23:10.582Z,11.32
2019-03-28T12:24:10.484Z,11.25
2019-03-28T12:25:10.383Z,11.17
2019-03-28T12:26:10.276Z,11.19
2019-03-28T12:27:10.179Z,11.12
2019-03-28T12:28:10.078Z,11.11
2019-03-28T12:29:09.980Z,11.15
2019-03-28T12:30:09.876Z,11.14
2019-03-28T12:31:09.774Z,11.15
2019-03-28T12:32:14.345Z,11.33
2019-03-28T12:33:09.575Z,11.40
2019-03-28T12:34:09.469Z,11.40
2019-03-28T12:35:09.374Z,11.50
2019-03-28T12:36:09.267Z,11.44
2019-03-28T12:37:09.164Z,11.50
2019-03-28T12:38:09.066Z,11.52
2019-03-28T12:39:08.962Z,11.57
2019-03-28T12:40:08.862Z,11.51
2019-03-28T12:41:08.775Z,11.51
2019-03-28T12:42:08.715Z,11.52
2019-03-28T12:43:08.564Z,11.44
2019-03-28T12:44:08.457Z,11.40
2019-03-28T12:45:08.360Z,11.41
2019-03-28T12:46:08.258Z,11.30
2019-03-28T12:47:08.158Z,11.36
2019-03-28T12:48:08.051Z,11.36
2019-03-28T12:49:07.951Z,11.51
2019-03-28T12:50:07.850Z,11.51
2019-03-28T12:51:07.750Z,11.36
2019-03-28T12:52:07.647Z,11.47
2019-03-28T12:53:07.546Z,11.51
2019-03-28T12:54:07.446Z,11.54
2019-03-28T12:55:07.345Z,11.68
2019-03-28T12:56:07.240Z,11.70
2019-03-28T12:57:07.142Z,11.80
2019-03-28T12:58:07.040Z,11.87
2019-03-28T12:59:06.940Z,11.84
2019-03-28T13:00:07.111Z,11.87
2019-03-28T13:01:06.756Z,11.91
2019-03-28T13:02:06.692Z,11.86
2019-03-28T13:03:06.535Z,11.78
2019-03-28T13:04:06.437Z,11.69
2019-03-28T13:05:06.333Z,11.72
2019-03-28T13:06:06.234Z,11.63
2019-03-28T13:07:06.129Z,11.51